Time;durP1;ratioP1;P1;durP2;ratioP2;P2;SDS_P1;SDS_P2;PMS_P1;PMS_P2;Temp;Humidity;BMP_temperature;BMP_pressure;BME280_temperature;BME280_humidity;BME280_pressure;Samples;Min_cycle;Max_cycle;Signal;HPM_P1;HPM_P2
2022/08/23 00:02:59;;;;;;;4.22;1.88;;;;;;;18.79;51.01;95885.84;10326227;28;98073;-59
2022/08/23 00:08:06;;;;;;;4.53;1.92;;;;;;;18.70;51.23;95879.97;10326874;28;97182;-59
2022/08/23 00:13:09;;;;;;;3.03;1.90;;;;;;;18.58;52.16;95879.00;10327024;28;97343;-59
2022/08/23 00:18:13;;;;;;;4.75;1.88;;;;;;;18.34;52.05;95877.81;10330775;28;97097;-59
2022/08/23 00:23:17;;;;;;;4.67;1.63;;;;;;;18.18;53.09;95873.75;10334075;28;98925;-59
2022/08/23 00:28:20;;;;;;;5.13;1.88;;;;;;;17.91;53.65;95885.16;10327474;28;97820;-59
2022/08/23 00:33:23;;;;;;;4.65;1.77;;;;;;;17.92;53.06;95878.03;10333329;28;97136;-59
2022/08/23 00:38:27;;;;;;;3.50;2.15;;;;;;;17.77;53.59;95878.19;10338321;28;96818;-59
2022/08/23 00:49:03;;;;;;;;;;;;;;;17.36;54.22;95885.22;10331367;28;96763;-59
2022/08/23 00:54:09;;;;;;;3.97;2.37;;;;;;;17.34;55.45;95883.78;10334635;28;96923;-59
2022/08/23 00:59:12;;;;;;;4.85;2.28;;;;;;;17.23;55.89;95874.63;10319993;28;96776;-60
2022/08/23 01:04:16;;;;;;;5.38;3.50;;;;;;;17.04;56.79;95885.91;10333095;28;96755;-60
2022/08/23 01:09:22;;;;;;;5.20;3.00;;;;;;;16.95;56.61;95885.25;10324529;28;97770;-61
2022/08/23 01:14:29;;;;;;;7.22;3.30;;;;;;;16.98;56.82;95885.69;10312383;28;96808;-59
2022/08/23 01:19:36;;;;;;;3.88;1.90;;;;;;;16.92;56.81;95880.38;10332505;28;98609;-59
2022/08/23 01:24:41;;;;;;;5.05;2.17;;;;;;;16.99;55.66;95884.69;10332579;28;96809;-59
2022/08/23 01:30:05;;;;;;;3.40;2.08;;;;;;;17.02;55.52;95890.56;10329864;28;96787;-58
2022/08/23 01:35:09;;;;;;;4.25;2.97;;;;;;;16.95;54.53;95890.53;10328422;28;98108;-61
2022/08/23 01:40:14;;;;;;;5.18;3.08;;;;;;;16.86;55.64;95892.53;10327725;28;96929;-59
2022/08/23 01:45:18;;;;;;;4.72;2.70;;;;;;;16.73;56.54;95887.16;10324822;28;96898;-58
2022/08/23 01:50:21;;;;;;;4.85;3.20;;;;;;;16.52;57.90;95894.16;10326318;28;96840;-58
2022/08/23 01:55:25;;;;;;;5.13;2.53;;;;;;;16.30;58.42;95882.84;10320658;28;98811;-59
2022/08/23 02:00:34;;;;;;;5.10;2.30;;;;;;;16.30;58.28;95889.94;10331803;28;98528;-59
2022/08/23 02:05:37;;;;;;;5.35;2.95;;;;;;;16.34;58.07;95907.00;10318460;28;96859;-59
2022/08/23 02:10:42;;;;;;;6.63;2.20;;;;;;;16.30;57.86;95908.41;10316248;28;96790;-58
2022/08/23 02:15:45;;;;;;;5.07;2.38;;;;;;;16.16;58.43;95900.38;10331473;28;96817;-59
2022/08/23 02:20:50;;;;;;;5.20;2.35;;;;;;;16.13;59.33;95908.66;10322795;28;96881;-58
2022/08/23 02:25:55;;;;;;;4.80;2.33;;;;;;;16.03;59.33;95908.16;10325250;28;96775;-58
2022/08/23 02:30:58;;;;;;;3.42;2.08;;;;;;;15.87;59.65;95910.06;10330734;28;97078;-59
2022/08/23 02:36:01;;;;;;;4.05;1.98;;;;;;;15.88;60.13;95916.97;10324384;28;97369;-58
2022/08/23 02:41:05;;;;;;;5.25;2.40;;;;;;;15.90;59.49;95908.06;10312461;28;97727;-59
2022/08/23 02:46:08;;;;;;;3.47;2.07;;;;;;;15.95;58.61;95911.75;10328773;28;97022;-59
2022/08/23 02:51:11;;;;;;;4.35;2.25;;;;;;;15.82;59.49;95907.16;10320615;28;97161;-59
2022/08/23 02:56:16;;;;;;;4.88;2.25;;;;;;;15.63;60.14;95915.69;10328847;28;96812;-59
2022/08/23 03:01:26;;;;;;;4.07;2.53;;;;;;;15.59;60.37;95917.09;10324636;28;96919;-58
2022/08/23 03:06:28;;;;;;;5.47;2.60;;;;;;;15.46;61.61;95918.53;10323804;28;96894;-58
2022/08/23 03:11:33;;;;;;;3.63;2.35;;;;;;;15.44;61.06;95924.97;10325271;28;96827;-58
2022/08/23 03:16:36;;;;;;;4.32;2.38;;;;;;;15.31;62.15;95925.66;10310542;28;96837;-59
2022/08/23 03:21:39;;;;;;;6.18;2.55;;;;;;;15.10;62.26;95927.22;10315590;28;97756;-59
2022/08/23 03:26:46;;;;;;;3.95;2.80;;;;;;;14.93;62.60;95923.16;10320164;28;96740;-58
2022/08/23 03:31:50;;;;;;;5.20;2.30;;;;;;;14.97;61.81;95927.06;10323885;28;97484;-58
2022/08/23 03:36:56;;;;;;;3.95;2.33;;;;;;;14.97;62.46;95924.44;10329301;28;97662;-59
2022/08/23 03:42:00;;;;;;;4.68;2.17;;;;;;;15.02;61.41;95916.81;10337740;28;96864;-59
2022/08/23 03:47:04;;;;;;;3.83;2.20;;;;;;;15.04;60.95;95920.06;10331822;28;96783;-58
2022/08/23 03:52:08;;;;;;;3.55;2.13;;;;;;;15.04;61.39;95930.59;10336112;28;96808;-59
2022/08/23 03:57:12;;;;;;;5.68;2.53;;;;;;;14.98;61.80;95935.78;10334511;28;96783;-59
2022/08/23 04:02:15;;;;;;;6.67;2.80;;;;;;;14.72;63.29;95943.13;10325101;28;98762;-58
2022/08/23 04:07:19;;;;;;;5.70;2.50;;;;;;;14.72;64.09;95945.75;10314721;28;97173;-58
2022/08/23 04:12:23;;;;;;;2.93;2.37;;;;;;;14.64;63.36;95956.34;10324184;28;96904;-58
2022/08/23 04:17:27;;;;;;;3.63;2.70;;;;;;;14.59;63.94;95957.88;10327436;28;97161;-59
2022/08/23 04:22:34;;;;;;;6.13;2.75;;;;;;;14.52;64.40;95957.78;10331937;28;97392;-58
2022/08/23 04:27:38;;;;;;;5.47;3.05;;;;;;;14.46;64.65;95963.78;10330806;28;97079;-59
2022/08/23 04:32:41;;;;;;;3.70;2.70;;;;;;;14.56;63.99;95964.34;10330632;28;97246;-58
2022/08/23 04:37:45;;;;;;;3.60;2.13;;;;;;;14.65;62.74;95968.50;10332861;28;96746;-59
2022/08/23 04:42:49;;;;;;;4.40;2.40;;;;;;;14.60;62.96;95981.38;10318327;28;96831;-60
2022/08/23 04:47:52;;;;;;;6.40;2.40;;;;;;;14.64;63.24;95987.88;10333475;28;97246;-59
2022/08/23 04:52:54;;;;;;;7.10;2.80;;;;;;;14.59;63.63;95990.25;10325501;28;97051;-59
2022/08/23 04:57:59;;;;;;;5.30;2.72;;;;;;;14.39;64.76;95994.38;10333829;28;97081;-59
2022/08/23 05:03:02;;;;;;;4.03;2.70;;;;;;;14.29;64.59;95994.59;10320893;28;96754;-59
2022/08/23 05:08:04;;;;;;;5.20;2.95;;;;;;;14.33;65.19;96004.63;10329320;28;96769;-59
2022/08/23 05:13:09;;;;;;;3.42;2.55;;;;;;;14.41;64.88;96005.53;10324452;28;96813;-58
2022/08/23 05:18:12;;;;;;;6.87;3.10;;;;;;;14.44;65.10;95999.94;10331936;28;96763;-58
2022/08/23 05:23:15;;;;;;;6.10;3.25;;;;;;;14.53;65.45;96012.81;10331470;28;97710;-58
2022/08/23 05:28:22;;;;;;;3.75;2.55;;;;;;;14.58;65.21;96014.91;10325089;28;97142;-59
2022/08/23 05:33:25;;;;;;;4.03;2.55;;;;;;;14.72;65.12;96027.25;10325443;28;96755;-60
2022/08/23 05:38:28;;;;;;;5.47;2.80;;;;;;;14.81;65.11;96029.81;10327172;28;96809;-59
2022/08/23 05:43:32;;;;;;;3.70;2.88;;;;;;;14.91;64.65;96040.91;10327327;28;96823;-59
2022/08/23 05:48:36;;;;;;;5.40;2.90;;;;;;;15.01;64.45;96041.47;10330655;28;97058;-59
2022/08/23 05:53:43;;;;;;;3.78;2.95;;;;;;;15.07;64.37;96035.47;10324185;28;98163;-58
2022/08/23 05:58:49;;;;;;;5.00;3.05;;;;;;;15.24;64.82;96041.38;10328256;28;96878;-59
2022/08/23 06:03:52;;;;;;;7.05;3.08;;;;;;;15.41;64.11;96035.91;10332246;28;97151;-60
2022/08/23 06:08:54;;;;;;;6.78;2.90;;;;;;;15.54;63.72;96038.72;10331537;28;96777;-59
2022/08/23 06:14:01;;;;;;;5.22;2.92;;;;;;;15.71;64.20;96039.34;10331099;28;97020;-58
2022/08/23 06:19:05;;;;;;;6.03;2.90;;;;;;;15.89;63.05;96041.56;10321082;28;96968;-59
2022/08/23 06:24:09;;;;;;;5.00;2.53;;;;;;;15.97;61.93;96040.66;10330309;28;96753;-59
2022/08/23 06:29:16;;;;;;;5.93;3.00;;;;;;;16.04;62.01;96047.63;10331863;28;96807;-59
2022/08/23 06:34:23;;;;;;;4.93;3.08;;;;;;;16.21;60.98;96052.66;10320043;28;96812;-58
2022/08/23 06:39:28;;;;;;;7.30;2.95;;;;;;;16.32;61.09;96062.69;10331079;28;96903;-58
2022/08/23 06:44:34;;;;;;;4.88;2.65;;;;;;;16.35;61.67;96053.63;10330851;28;96868;-60
2022/08/23 06:49:37;;;;;;;3.63;3.00;;;;;;;16.53;62.26;96056.59;10329446;28;97386;-59
2022/08/23 06:54:39;;;;;;;4.38;2.78;;;;;;;16.77;62.62;96065.16;10331478;28;98075;-58
2022/08/23 06:59:44;;;;;;;5.03;3.00;;;;;;;16.97;62.59;96054.75;10330638;28;98858;-59
2022/08/23 07:04:52;;;;;;;5.17;2.70;;;;;;;17.12;62.36;96060.75;10330793;28;96732;-59
2022/08/23 07:09:55;;;;;;;5.10;3.78;;;;;;;17.22;61.90;96065.69;10331894;28;97300;-58
2022/08/23 07:14:59;;;;;;;4.53;2.42;;;;;;;17.36;61.61;96066.59;10338174;28;96779;-58
2022/08/23 07:20:02;;;;;;;9.03;2.93;;;;;;;17.45;62.15;96070.69;10337913;28;96775;-59
2022/08/23 07:25:05;;;;;;;4.18;2.80;;;;;;;17.60;61.85;96077.69;10337618;28;96837;-60
2022/08/23 07:30:10;;;;;;;5.60;3.10;;;;;;;17.74;61.95;96074.91;10336999;28;97388;-59
2022/08/23 07:35:13;;;;;;;4.50;2.90;;;;;;;17.94;62.08;96082.13;10337163;28;96745;-59
2022/08/23 07:40:18;;;;;;;4.57;2.88;;;;;;;18.09;61.67;96074.84;10336599;28;96830;-59
2022/08/23 07:45:23;;;;;;;4.47;2.95;;;;;;;18.19;60.80;96076.31;10337453;28;96770;-59
2022/08/23 07:50:27;;;;;;;6.70;3.00;;;;;;;18.30;60.76;96081.00;10333534;28;96743;-59
2022/08/23 07:55:32;;;;;;;3.55;2.50;;;;;;;18.40;59.46;96084.09;10336586;28;96870;-59
2022/08/23 08:00:36;;;;;;;4.40;2.47;;;;;;;18.46;59.44;96083.28;10335129;28;96958;-59
2022/08/23 08:05:39;;;;;;;;;;;;;;;18.54;59.92;96084.13;10336537;28;98623;-58
2022/08/23 08:10:43;;;;;;;3.30;2.60;;;;;;;18.75;58.37;96081.28;10336098;28;96880;-59
2022/08/23 08:15:47;;;;;;;4.23;2.77;;;;;;;18.88;57.57;96078.66;10336097;28;97093;-59
2022/08/23 08:20:50;;;;;;;4.03;2.55;;;;;;;19.12;57.52;96072.94;10334796;28;96819;-59
2022/08/23 08:26:01;;;;;;;3.85;2.97;;;;;;;19.33;57.85;96079.84;10335772;28;97600;-59
2022/08/23 08:31:05;;;;;;;4.22;2.58;;;;;;;19.50;57.18;96083.69;10335396;28;98722;-60
2022/08/23 08:36:26;;;;;;;4.20;2.70;;;;;;;19.55;56.20;96088.34;10336264;28;96755;-59
2022/08/23 08:41:52;;;;;;;5.72;3.03;;;;;;;19.75;55.56;96077.72;10335101;28;96842;-59
2022/08/23 08:47:17;;;;;;;5.15;3.20;;;;;;;19.87;55.86;96072.59;10334648;28;99700;-59
2022/08/23 08:52:25;;;;;;;5.57;3.20;;;;;;;20.00;55.63;96078.63;10326346;28;96844;-59
2022/08/23 08:57:37;;;;;;;5.55;2.67;;;;;;;20.06;55.21;96077.00;10332863;28;97863;-60
2022/08/23 09:02:43;;;;;;;3.60;2.55;;;;;;;20.20;55.04;96072.44;10325900;28;97825;-59
2022/08/23 09:07:57;;;;;;;5.13;2.90;;;;;;;20.24;54.93;96049.75;10334481;28;96772;-60
2022/08/23 09:13:16;;;;;;;4.40;2.70;;;;;;;20.51;54.51;96074.31;10323987;28;97051;-59
2022/08/23 09:18:23;;;;;;;5.03;3.00;;;;;;;20.62;54.11;96070.13;10324254;28;97427;-59
2022/08/23 09:23:31;;;;;;;3.15;2.65;;;;;;;20.75;53.67;96064.78;10333670;28;96833;-59
2022/08/23 09:28:36;;;;;;;5.53;3.03;;;;;;;20.94;53.51;96062.97;10330832;28;97747;-59
2022/08/23 09:33:42;;;;;;;3.80;2.90;;;;;;;21.12;52.91;96056.91;10332319;28;97731;-59
2022/08/23 09:38:52;;;;;;;7.25;3.38;;;;;;;21.22;52.54;96059.03;10331245;28;96767;-59
2022/08/23 09:43:57;;;;;;;6.30;3.40;;;;;;;21.29;52.29;96048.34;10331294;28;97678;-59
2022/08/23 09:49:22;;;;;;;3.25;2.88;;;;;;;21.46;52.42;96053.91;10332120;28;96951;-59
2022/08/23 09:54:30;;;;;;;4.30;2.90;;;;;;;21.68;51.74;96056.97;10325049;28;97650;-60
2022/08/23 09:59:40;;;;;;;4.53;2.63;;;;;;;21.84;50.69;96064.31;10331323;28;98038;-59
2022/08/23 10:04:58;;;;;;;3.90;2.50;;;;;;;21.95;50.46;96061.97;10327006;28;96866;-59
2022/08/23 10:10:15;;;;;;;3.85;3.05;;;;;;;22.08;50.04;96059.13;10326607;28;96918;-59
2022/08/23 10:15:18;;;;;;;4.30;3.17;;;;;;;22.24;49.24;96050.50;10332041;28;97438;-59
2022/08/23 10:20:34;;;;;;;3.97;2.60;;;;;;;22.38;49.14;96039.69;10332924;28;96891;-60
2022/08/23 10:25:42;;;;;;;3.50;2.80;;;;;;;22.49;47.52;96030.97;10320550;28;97115;-59
2022/08/23 10:30:53;;;;;;;4.20;3.05;;;;;;;22.64;47.28;96014.53;10326514;28;96793;-60
2022/08/23 10:36:06;;;;;;;3.85;2.78;;;;;;;22.82;47.38;96016.28;10328764;28;96908;-59
2022/08/23 10:41:22;;;;;;;4.15;2.60;;;;;;;22.94;45.44;96010.97;10331540;28;97585;-60
2022/08/23 10:46:29;;;;;;;4.90;2.72;;;;;;;23.10;45.21;96009.47;10323369;28;96798;-60
2022/08/23 10:51:38;;;;;;;4.20;2.83;;;;;;;23.31;45.25;96008.91;10330934;28;96787;-61
2022/08/23 10:56:42;;;;;;;4.28;2.53;;;;;;;23.46;44.07;96007.59;10321663;28;97279;-59
2022/08/23 11:01:58;;;;;;;4.25;2.85;;;;;;;23.62;43.57;96001.56;10324120;28;97689;-59
2022/08/23 11:07:15;;;;;;;3.35;2.60;;;;;;;23.68;43.11;95987.25;10321487;28;97163;-59
2022/08/23 11:12:30;;;;;;;5.32;2.42;;;;;;;23.77;42.62;95992.22;10331432;28;97154;-59
2022/08/23 11:17:43;;;;;;;4.22;2.67;;;;;;;24.16;41.81;95989.75;10323547;28;97236;-60
2022/08/23 11:23:13;;;;;;;4.15;2.53;;;;;;;24.39;41.50;95989.66;10328857;28;97974;-60
2022/08/23 11:28:42;;;;;;;2.97;2.20;;;;;;;24.56;40.41;95994.19;10320017;28;96796;-60
2022/08/23 11:33:48;;;;;;;3.85;2.30;;;;;;;24.73;40.09;95989.69;10327528;28;96788;-61
2022/08/23 11:39:06;;;;;;;3.50;2.50;;;;;;;24.82;39.65;95982.88;10323785;28;96764;-59
2022/08/23 11:44:23;;;;;;;3.10;2.67;;;;;;;24.93;39.56;95985.72;10322587;28;97460;-59
2022/08/23 11:49:56;;;;;;;2.83;2.10;;;;;;;25.12;38.62;95980.91;10329300;28;98760;-59
2022/08/23 11:55:23;;;;;;;2.70;2.10;;;;;;;25.51;37.41;95968.31;10321804;28;96848;-59
2022/08/23 12:00:33;;;;;;;5.82;2.60;;;;;;;25.78;36.36;95979.09;10330220;28;97884;-60
2022/08/23 12:06:08;;;;;;;4.53;2.30;;;;;;;25.93;36.65;95985.66;10335014;28;96953;-59
2022/08/23 12:11:17;;;;;;;3.92;2.28;;;;;;;25.89;35.90;95979.19;10335558;28;96679;-60
2022/08/23 12:16:37;;;;;;;2.53;2.15;;;;;;;26.02;35.44;95962.75;10336346;28;96880;-59
2022/08/23 12:21:54;;;;;;;4.43;2.25;;;;;;;26.13;35.65;95972.47;10334473;28;96932;-60
2022/08/23 12:27:08;;;;;;;2.92;2.25;;;;;;;26.29;34.72;95978.84;10325064;28;96902;-59
2022/08/23 12:32:19;;;;;;;4.00;1.92;;;;;;;26.65;34.47;95968.41;10334819;28;96826;-59
2022/08/23 12:37:32;;;;;;;4.72;2.22;;;;;;;27.14;33.92;95961.25;10329607;28;97278;-59
2022/08/23 12:42:38;;;;;;;2.97;2.20;;;;;;;27.53;33.05;95953.66;10330102;28;96823;-59
2022/08/23 12:47:44;;;;;;;6.53;2.30;;;;;;;27.47;32.83;95962.75;10331571;28;98786;-59
2022/08/23 12:52:58;;;;;;;3.42;2.28;;;;;;;27.47;33.10;95966.25;10330903;28;96785;-59
2022/08/23 12:58:03;;;;;;;2.50;1.92;;;;;;;27.46;33.19;95953.91;10331189;28;96760;-60
2022/08/23 13:03:15;;;;;;;2.20;2.00;;;;;;;27.33;32.83;95964.31;10329801;28;96801;-60
2022/08/23 13:08:23;;;;;;;3.70;1.95;;;;;;;27.21;32.86;95953.78;10328597;28;97883;-59
2022/08/23 13:13:40;;;;;;;3.80;2.00;;;;;;;27.20;33.07;95949.50;10332520;28;97096;-59
2022/08/23 13:18:44;;;;;;;2.85;2.00;;;;;;;27.32;32.44;95931.31;10327129;28;97823;-59
2022/08/23 13:23:47;;;;;;;3.05;2.15;;;;;;;27.68;31.99;95931.47;10332884;28;97068;-59
2022/08/23 13:29:03;;;;;;;3.78;2.10;;;;;;;27.67;32.33;95936.03;10328091;28;96762;-59
2022/08/23 13:34:06;;;;;;;2.60;2.20;;;;;;;27.63;31.63;95932.28;10324939;28;96965;-60
2022/08/23 13:39:09;;;;;;;2.53;2.10;;;;;;;27.93;31.30;95929.94;10319243;28;96792;-61
2022/08/23 13:44:14;;;;;;;3.97;1.93;;;;;;;28.12;30.92;95931.03;10326434;28;96967;-59
2022/08/23 13:49:26;;;;;;;3.13;2.10;;;;;;;28.40;30.22;95928.94;10324102;28;98019;-59
2022/08/23 13:54:30;;;;;;;2.85;1.88;;;;;;;28.48;29.94;95920.34;10328789;28;97035;-60
2022/08/23 13:59:37;;;;;;;2.88;2.00;;;;;;;28.65;29.26;95930.78;10331983;28;97970;-59
2022/08/23 14:04:40;;;;;;;2.42;1.80;;;;;;;28.72;29.19;95933.19;10326874;28;96753;-59
2022/08/23 14:09:43;;;;;;;3.40;2.20;;;;;;;28.72;29.11;95919.75;10329605;28;98713;-59
2022/08/23 14:14:49;;;;;;;3.05;2.00;;;;;;;29.19;28.22;95921.28;10332097;28;98724;-60
2022/08/23 14:19:51;;;;;;;3.05;1.85;;;;;;;29.63;27.58;95925.19;10331291;28;97349;-60
2022/08/23 14:25:15;;;;;;;2.70;1.70;;;;;;;30.07;27.27;95924.38;10320481;28;96927;-60
2022/08/23 14:30:29;;;;;;;3.00;1.90;;;;;;;30.84;26.91;95924.63;10331401;28;98044;-60
2022/08/23 14:35:32;;;;;;;3.15;1.75;;;;;;;31.67;25.78;95916.38;10330507;28;96886;-60
2022/08/23 14:40:35;;;;;;;;;;;;;;;32.53;26.34;95915.44;10328950;28;97173;-60
2022/08/23 14:45:39;;;;;;;;;;;;;;;32.57;26.46;95912.94;10324802;28;97176;-60
2022/08/23 14:50:43;;;;;;;2.28;1.65;;;;;;;33.14;24.35;95921.69;10326634;28;96797;-60
2022/08/23 14:55:48;;;;;;;3.05;1.45;;;;;;;32.71;23.64;95928.09;10325559;28;96758;-61
2022/08/23 15:01:13;;;;;;;2.10;1.65;;;;;;;32.98;23.26;95923.84;10320802;28;97367;-60
2022/08/23 15:06:17;;;;;;;3.03;1.58;;;;;;;33.70;22.58;95933.28;10330676;28;97307;-60
2022/08/23 15:11:20;;;;;;;2.38;1.60;;;;;;;34.31;22.15;95935.75;10330429;28;98813;-60
2022/08/23 15:16:45;;;;;;;3.17;1.80;;;;;;;34.07;22.34;95923.25;10330950;28;97170;-60
2022/08/23 15:21:48;;;;;;;2.33;1.65;;;;;;;34.38;22.25;95933.41;10326268;28;96754;-60
2022/08/23 15:26:52;;;;;;;3.78;1.70;;;;;;;34.80;21.77;95931.34;10317666;28;97301;-58
2022/08/23 15:31:56;;;;;;;2.50;1.65;;;;;;;34.94;21.82;95910.31;10331320;28;96931;-59
2022/08/23 15:36:59;;;;;;;3.25;2.25;;;;;;;35.28;21.04;95910.81;10330106;28;98287;-58
2022/08/23 15:42:02;;;;;;;2.33;1.50;;;;;;;35.03;21.62;95918.50;10327046;28;96919;-58
2022/08/23 15:47:18;;;;;;;2.15;1.50;;;;;;;34.55;21.35;95914.53;10338282;28;96819;-59
2022/08/23 15:52:20;;;;;;;3.00;1.60;;;;;;;34.25;21.61;95910.69;10324141;28;96898;-58
2022/08/23 15:57:27;;;;;;;2.78;1.65;;;;;;;33.81;21.64;95904.88;10329889;28;96916;-59
2022/08/23 16:02:31;;;;;;;3.67;1.80;;;;;;;34.08;21.29;95905.91;10333773;28;96758;-59
2022/08/23 16:07:56;;;;;;;2.38;1.80;;;;;;;33.87;21.02;95912.91;10334135;28;97096;-59
2022/08/23 16:13:02;;;;;;;3.05;1.45;;;;;;;33.97;20.55;95907.25;10335057;28;97064;-58
2022/08/23 16:18:07;;;;;;;2.95;1.40;;;;;;;33.95;20.84;95914.88;10319023;28;96758;-58
2022/08/23 16:23:10;;;;;;;3.20;1.50;;;;;;;34.13;20.62;95926.69;10335524;28;96789;-59
2022/08/23 16:28:13;;;;;;;1.42;1.33;;;;;;;34.06;20.31;95918.97;10331894;28;96985;-58
2022/08/23 16:33:17;;;;;;;2.60;1.40;;;;;;;33.98;20.45;95916.97;10327854;28;96843;-58
2022/08/23 16:38:20;;;;;;;1.63;1.27;;;;;;;34.07;20.49;95917.84;10326923;28;96869;-59
2022/08/23 16:43:23;;;;;;;4.85;1.70;;;;;;;33.93;20.64;95922.50;10334091;28;98723;-59
2022/08/23 16:48:27;;;;;;;5.15;3.67;;;;;;;33.56;21.37;95927.06;10318719;28;96736;-59
2022/08/23 16:53:31;;;;;;;2.15;1.77;;;;;;;33.65;21.37;95925.28;10334514;28;96784;-59
2022/08/23 16:58:35;;;;;;;2.22;1.63;;;;;;;33.64;21.52;95929.09;10334252;28;97178;-58
2022/08/23 17:03:39;;;;;;;3.30;1.40;;;;;;;33.12;22.08;95925.75;10334279;28;96850;-58
2022/08/23 17:08:42;;;;;;;6.93;6.22;;;;;;;32.57;22.34;95929.16;10333917;28;96922;-58
2022/08/23 17:13:46;;;;;;;2.75;1.70;;;;;;;32.09;22.34;95924.75;10334534;28;96693;-59
2022/08/23 17:18:55;;;;;;;2.47;1.60;;;;;;;31.81;22.64;95929.97;10322664;28;97786;-58
2022/08/23 17:23:58;;;;;;;3.05;1.20;;;;;;;31.16;23.35;95942.06;10324024;28;96871;-58
2022/08/23 17:29:03;;;;;;;;;;;;;;;30.27;24.35;95937.75;10330216;28;97198;-58
2022/08/23 17:34:07;;;;;;;2.67;1.60;;;;;;;29.57;25.44;95937.84;10323144;28;96790;-58
2022/08/23 17:39:13;;;;;;;3.53;1.60;;;;;;;29.04;26.21;95940.19;10325543;28;96733;-58
2022/08/23 17:44:16;;;;;;;2.95;1.60;;;;;;;28.82;26.32;95946.63;10320102;28;97334;-57
2022/08/23 17:49:20;;;;;;;2.88;1.90;;;;;;;28.45;26.72;95953.09;10333166;28;96975;-58
2022/08/23 17:54:23;;;;;;;3.85;1.48;;;;;;;27.99;27.60;95955.69;10322272;28;96865;-57
2022/08/23 17:59:27;;;;;;;4.85;1.60;;;;;;;27.59;28.36;95957.16;10330219;28;96881;-58
2022/08/23 18:04:31;;;;;;;;;;;;;;;27.29;28.35;95972.06;10332592;28;96793;-58
2022/08/23 18:09:34;;;;;;;4.45;2.03;;;;;;;26.80;29.00;95967.72;10332731;28;96815;-58
2022/08/23 18:14:45;;;;;;;2.63;1.70;;;;;;;26.40;29.50;95985.09;10329064;28;97599;-57
2022/08/23 18:19:49;;;;;;;4.03;1.63;;;;;;;26.09;30.00;95978.63;10333163;28;96858;-58
2022/08/23 18:24:52;;;;;;;5.72;2.00;;;;;;;25.80;30.38;95993.00;10328600;28;97349;-57
2022/08/23 18:29:55;;;;;;;2.77;1.60;;;;;;;25.55;30.76;95993.53;10330626;28;98771;-58
2022/08/23 18:34:59;;;;;;;2.75;1.77;;;;;;;25.30;31.12;95996.66;10321957;28;98540;-57
2022/08/23 18:40:03;;;;;;;2.35;1.50;;;;;;;25.12;31.20;96011.09;10328739;28;96982;-58
2022/08/23 18:45:12;;;;;;;3.15;1.95;;;;;;;25.00;31.50;96021.09;10330426;28;98460;-58
2022/08/23 18:50:18;;;;;;;2.20;1.70;;;;;;;24.80;31.99;96011.69;10329170;28;96785;-58
2022/08/23 18:55:21;;;;;;;2.65;1.90;;;;;;;24.61;32.21;96026.31;10331227;28;96934;-58
2022/08/23 19:00:23;;;;;;;3.28;1.80;;;;;;;24.45;32.96;96030.59;10330616;28;97691;-57
2022/08/23 19:05:28;;;;;;;2.45;1.85;;;;;;;24.25;33.73;96028.38;10332244;28;96751;-58
2022/08/23 19:10:44;;;;;;;2.40;1.92;;;;;;;24.09;34.19;96033.44;10334454;28;96898;-58
2022/08/23 19:15:48;;;;;;;3.43;2.10;;;;;;;24.01;34.33;96036.44;10337041;28;97058;-57
2022/08/23 19:20:52;;;;;;;4.80;1.92;;;;;;;23.94;34.66;96035.78;10324346;28;96791;-58
2022/08/23 19:25:55;;;;;;;2.92;1.83;;;;;;;23.87;34.77;96051.13;10349448;28;96911;-59
2022/08/23 19:30:58;;;;;;;3.78;1.90;;;;;;;23.79;34.63;96048.81;10332037;28;97922;-58
2022/08/23 19:36:03;;;;;;;3.42;2.10;;;;;;;23.69;35.08;96047.56;10333963;28;97051;-57
2022/08/23 19:41:06;;;;;;;4.05;2.00;;;;;;;23.60;35.25;96051.63;10328906;28;96888;-58
2022/08/23 19:46:14;;;;;;;4.47;1.77;;;;;;;23.56;35.32;96050.47;10336423;28;97705;-57
2022/08/23 19:51:22;;;;;;;2.95;1.80;;;;;;;23.52;35.66;96057.34;10332176;28;96964;-58
2022/08/23 19:56:24;;;;;;;3.42;1.83;;;;;;;23.44;35.76;96057.69;10336772;28;97185;-58
2022/08/23 20:01:28;;;;;;;5.03;2.35;;;;;;;23.37;35.83;96060.47;10330072;28;96875;-58
2022/08/23 20:06:33;;;;;;;2.13;1.67;;;;;;;23.32;35.79;96061.16;10331493;28;96995;-58
2022/08/23 20:11:35;;;;;;;2.67;1.60;;;;;;;23.27;35.50;96057.53;10332732;28;97180;-58
2022/08/23 20:16:40;;;;;;;2.55;1.90;;;;;;;23.25;35.96;96055.09;10331950;28;98348;-58
2022/08/23 20:21:45;;;;;;;2.42;1.70;;;;;;;23.18;35.53;96075.72;10327831;28;96874;-58
2022/08/23 20:26:49;;;;;;;3.47;1.70;;;;;;;23.18;35.60;96078.41;10333877;28;96884;-59
2022/08/23 20:31:55;;;;;;;3.15;1.77;;;;;;;23.16;35.71;96072.50;10330641;28;98655;-58
2022/08/23 20:37:00;;;;;;;2.40;1.70;;;;;;;23.06;36.38;96069.59;10331870;28;96981;-57
2022/08/23 20:42:03;;;;;;;4.47;2.10;;;;;;;23.05;35.77;96071.47;10334357;28;97202;-57
2022/08/23 20:47:10;;;;;;;3.88;1.88;;;;;;;22.97;36.37;96069.13;10334280;28;97233;-58
2022/08/23 20:52:15;;;;;;;5.00;1.70;;;;;;;22.94;35.99;96080.22;10321506;28;96813;-57
2022/08/23 20:57:18;;;;;;;3.65;1.63;;;;;;;22.87;35.84;96074.19;10327959;28;96840;-58
2022/08/23 21:02:21;;;;;;;4.68;1.40;;;;;;;22.78;35.97;96082.53;10334158;28;96894;-58
2022/08/23 21:07:25;;;;;;;2.50;1.80;;;;;;;22.72;35.01;96072.00;10334089;28;96828;-59
2022/08/23 21:12:29;;;;;;;2.63;1.63;;;;;;;22.69;35.48;96075.09;10332827;28;98868;-58
2022/08/23 21:17:32;;;;;;;3.22;1.92;;;;;;;22.63;35.54;96077.63;10329504;28;98284;-57
2022/08/23 21:22:36;;;;;;;2.15;1.50;;;;;;;22.62;35.70;96076.00;10328068;28;98665;-58
2022/08/23 21:27:39;;;;;;;2.55;1.60;;;;;;;22.56;35.91;96076.09;10324523;28;96779;-57
2022/08/23 21:32:42;;;;;;;4.68;1.98;;;;;;;22.51;35.69;96065.31;10332115;28;96872;-57
2022/08/23 21:37:46;;;;;;;2.17;1.40;;;;;;;22.48;35.80;96061.28;10322618;28;96732;-58
2022/08/23 21:42:49;;;;;;;1.40;1.20;;;;;;;22.39;35.40;96063.41;10329115;28;96785;-58
2022/08/23 21:47:52;;;;;;;4.60;1.60;;;;;;;22.30;36.26;96067.44;10327924;28;97585;-58
2022/08/23 21:52:56;;;;;;;2.75;1.38;;;;;;;22.30;35.76;96074.59;10325685;28;98206;-58
2022/08/23 21:57:59;;;;;;;2.97;1.60;;;;;;;22.27;35.38;96080.41;10327994;28;97585;-58
2022/08/23 22:03:02;;;;;;;5.30;1.67;;;;;;;22.27;35.74;96077.72;10331548;28;97310;-59
2022/08/23 22:08:06;;;;;;;1.67;1.30;;;;;;;22.23;35.72;96083.50;10327674;28;96758;-58
2022/08/23 22:13:09;;;;;;;;;;;;;;;22.21;35.56;96082.91;10329337;28;97235;-58
2022/08/23 22:18:12;;;;;;;2.80;1.73;;;;;;;22.20;35.47;96075.97;10332557;28;96766;-58
2022/08/23 22:23:16;;;;;;;2.17;1.40;;;;;;;22.15;35.55;96078.47;10331808;28;96838;-58
2022/08/23 22:28:19;;;;;;;3.17;1.77;;;;;;;22.11;35.54;96073.81;10321910;28;96969;-58
2022/08/23 22:33:22;;;;;;;2.42;1.58;;;;;;;22.07;35.40;96068.13;10326716;28;98142;-58
2022/08/23 22:38:26;;;;;;;2.78;1.48;;;;;;;22.01;35.24;96061.06;10314551;28;97163;-58
2022/08/23 22:43:29;;;;;;;2.97;1.40;;;;;;;22.03;35.86;96069.63;10324619;28;96895;-58
2022/08/23 22:48:34;;;;;;;4.07;1.70;;;;;;;21.98;35.94;96064.97;10297399;28;96924;-59
2022/08/23 22:53:43;;;;;;;4.07;1.63;;;;;;;21.85;36.09;96068.63;10295763;28;97548;-58
2022/08/23 22:58:46;;;;;;;2.17;1.30;;;;;;;21.78;35.57;96070.56;10296182;28;96912;-58
2022/08/23 23:03:52;;;;;;;2.38;1.35;;;;;;;21.65;35.47;96065.38;10298728;28;97059;-60
2022/08/23 23:08:57;;;;;;;2.83;1.63;;;;;;;21.51;36.26;96068.13;10311988;28;96880;-59
2022/08/23 23:13:59;;;;;;;;;;;;;;;21.38;36.12;96065.66;10316327;28;98514;-58
2022/08/23 23:24:26;;;;;;;5.22;1.80;;;;;;;21.08;37.87;96063.66;10314742;28;97223;-58
2022/08/23 23:29:30;;;;;;;2.80;1.73;;;;;;;20.90;39.61;96071.59;10317664;28;96857;-57
2022/08/23 23:34:33;;;;;;;7.00;2.28;;;;;;;20.66;40.04;96071.31;10322635;28;98055;-58
2022/08/23 23:39:37;;;;;;;3.63;1.73;;;;;;;20.28;41.61;96068.72;10323412;28;96811;-58
2022/08/23 23:44:40;;;;;;;5.07;1.80;;;;;;;19.98;41.63;96064.78;10314147;28;97056;-57
2022/08/23 23:49:43;;;;;;;3.33;1.75;;;;;;;19.71;42.38;96073.84;10316211;28;98188;-57
2022/08/23 23:54:48;;;;;;;7.50;2.10;;;;;;;19.70;41.60;96072.22;10330994;28;96729;-58
2022/08/23 23:59:52;;;;;;;4.40;1.60;;;;;;;19.71;42.31;96068.53;10322876;28;96838;-58
